Flight Track Log - Related Links

Times and Time Zones

All times are in EDT time to prevent confusion due to time zone crossing. See the N724AE flight status page for this flight to view local times or setup timezone preferences in your user account.

Time Position Orientation Groundspeed Altitude Reporting Facility
EDT Latitude Longitude Course Direction KTS MPH feet Rate Location/Type
Tue 08:53:00 AM 30.7167 -91.3345 270° West  Level FlightAware Approximate
Tue 08:54:00 AM 30.7785 -91.3981 313° West  Level FlightAware Approximate
Tue 08:55:00 AM 30.8396 -91.4722 323° Northwest  Level FlightAware Approximate
Tue 08:56:00 AM 30.9103 -91.5339 323° Northwest  Level FlightAware Approximate
Tue 08:57:00 AM 30.9496 -91.6349 294° West  Level Estimated
Tue 08:58:00 AM 30.9889 -91.7360 294° West  Level Estimated
Tue 08:59:00 AM 31.0251 -91.8291 294° West  Level Estimated
Tue 09:00:00 AM 31.0611 -91.9224 294° West  Level Estimated
Tue 09:01:00 AM 31.0971 -92.0157 294° West  Level Estimated
Tue 09:02:00 AM 31.1330 -92.1090 294° West  Level Estimated
Tue 09:02:28 AM 30.9389 -91.9906 297° West 358 412 22,300  Level Houston Center
Tue 09:03:00 AM 31.1689 -92.2025 294° West  Level Estimated
Tue 09:03:29 AM 30.9853 -92.0953 297° West 362 417 24,000  Level Houston Center
Tue 09:04:00 AM 31.2047 -92.2960 294° West  Level Estimated
Tue 09:04:31 AM 31.0317 -92.1978 298° West 358 412 25,700  Level Houston Center
Tue 09:05:00 AM 31.1827 -92.4043 257° West  Level FlightAware Approximate
Tue 09:05:33 AM 31.0778 -92.3022 297° West 361 415 27,400  Level Houston Center
Tue 09:06:00 AM 31.2226 -92.5053 295° West  Level Estimated
Tue 09:06:34 AM 31.1247 -92.4061 298° West 360 414 28,400  Level Houston Center
Tue 09:07:00 AM 31.2624 -92.6065 297° West  Level Estimated
Tue 09:07:36 AM 31.1719 -92.5142 297° West 367 422 29,400  Level Houston Center
Tue 09:08:38 AM 31.2228 -92.6275 298° West 379 436 30,400 1,024 Climbing Houston Center
Tue 09:09:39 AM 31.2744 -92.7425 298° West 391 450 31,500 780 Climbing Houston Center
Tue 09:10:41 AM 31.3267 -92.8561 298° West 395 455 32,000 242 Climbing Houston Center
Tue 09:11:43 AM 31.3783 -92.9733 297° West 401 461 32,000  Level Houston Center
Tue 09:12:45 AM 31.4397 -93.1111 298° West 399 459 32,000  Level Houston Center
Tue 09:13:46 AM 31.4900 -93.2261 297° West 398 458 32,000  Level Houston Center
Tue 09:14:48 AM 31.5417 -93.3425 298° West 402 463 32,000  Level Houston Center
Tue 09:15:50 AM 31.5922 -93.4600 297° West 405 466 32,000  Level Houston Center
Tue 09:16:39 AM 31.6283 -93.5611 293° West 398 458 32,000  Level Fort Worth Center
Tue 09:17:39 AM 31.6553 -93.6869 284° West 392 451 32,000  Level Fort Worth Center
Tue 09:18:39 AM 31.6839 -93.8125 285° West 392 451 32,000  Level Fort Worth Center
Tue 09:19:39 AM 31.7083 -93.9386 283° West 397 457 32,000  Level Fort Worth Center
Tue 09:20:39 AM 31.7411 -94.0717 286° West 397 457 32,000  Level Fort Worth Center
Tue 09:21:39 AM 31.7675 -94.1978 284° West 397 457 32,000  Level Fort Worth Center
Tue 09:22:39 AM 31.7956 -94.3264 284° West 397 457 32,000  Level Fort Worth Center
Tue 09:23:39 AM 31.8236 -94.4525 285° West 397 457 32,000  Level Fort Worth Center
Tue 09:24:39 AM 31.8494 -94.5789 284° West 397 457 32,000  Level Fort Worth Center
Tue 09:25:39 AM 31.8753 -94.7053 284° West 397 457 32,000  Level Fort Worth Center
Tue 09:26:39 AM 31.9008 -94.8244 284° West 403 464 32,000  Level Fort Worth Center
Tue 09:27:39 AM 31.9283 -94.9533 284° West 408 470 32,000  Level Fort Worth Center
Tue 09:28:39 AM 31.9558 -95.0822 284° West 413 475 32,000  Level Fort Worth Center
Tue 09:29:39 AM 31.9814 -95.2139 283° West 413 475 32,000  Level Fort Worth Center
Tue 09:30:39 AM 32.0083 -95.3408 284° West 413 475 32,000 -50 Level Fort Worth Center
Tue 09:31:39 AM 32.0397 -95.4722 286° West 413 475 31,900 -1,300 Descending Fort Worth Center
Tue 09:32:39 AM 32.0833 -95.5964 293° West 413 475 29,400 -2,600 Descending Fort Worth Center
Tue 09:33:39 AM 32.1289 -95.7158 294° West 413 475 26,700 -2,750 Descending Fort Worth Center
Tue 09:34:39 AM 32.1744 -95.8450 293° West 419 482 23,900 -2,750 Descending Fort Worth Center
Tue 09:35:39 AM 32.2156 -95.9744 291° West 419 482 21,200 -2,700 Descending Fort Worth Center
Tue 09:36:39 AM 32.2586 -96.0942 293° West 404 465 18,500 -2,500 Descending Fort Worth Center
Tue 09:37:39 AM 32.3039 -96.2239 292° West 397 457 16,200 -1,850 Descending Fort Worth Center
Tue 09:38:39 AM 32.3403 -96.3289 292° West 381 438 14,800 -1,450 Descending Fort Worth Center
Tue 09:39:39 AM 32.3786 -96.4417 292° West 365 420 13,300 -1,400 Descending Fort Worth Center
Tue 09:40:39 AM 32.4378 -96.5200 312° West 345 397 12,000 -1,150 Descending Fort Worth Center
Tue 09:41:39 AM 32.5197 -96.6150 316° Northwest 367 422 11,000 -500 Descending Fort Worth Center
Tue 09:42:39 AM 32.5850 -96.6911 316° Northwest 367 422 11,000  Level Fort Worth Center
Tue 09:43:39 AM 32.6647 -96.7867 315° West 367 422 11,000  Level Fort Worth Center
Tue 09:44:39 AM 32.7256 -96.8578 315° West 359 413 11,000  Level Fort Worth Center
Tue 09:45:39 AM 32.7781 -96.9317 310° West 290 334 11,000  Level Fort Worth Center
Tue 09:46:21 AM 32.8000 -96.9667 307° West 244 281 11,000 -813 Level Dallas / Fort Worth TRACON
Tue 09:47:15 AM 32.8500 -97.0333 312° West 289 333 9,700 -1,485 Descending Dallas / Fort Worth TRACON
Tue 09:49:39 AM 32.9644 -97.1286 325° Northwest 225 259 6,100 -1,088 Descending Fort Worth Center
Tue 09:50:39 AM 33.0292 -97.1333 356° North 229 264 6,000 -550 Descending Fort Worth Center
Tue 09:51:39 AM 33.1025 -97.1506 349° North 235 270 5,000 -736 Descending Fort Worth Center
Tue 09:53:22 AM 33.2000 -97.1000 23° Northeast 238 274 4,000 -583 Descending Dallas / Fort Worth TRACON

Login

Don't have an account? Register now (free) for customized features, flight alerts, and more!